Neshannock, Pennsylvania
Current Conditions -  °F | °C
As of 3:56 PM on Tuesday 27 Jan 2015 (Local Time) from KUCP Reporting Station
Light Snow Light Snow  
Wind Chill:   Ceiling: 2000
Heat Index: 19°   Visibility: 2.5mi
Dew Point: 14°   Wind: 12mph
Humidity: 81%   Direction: 330°NNW
Pressure: 30.03"   Gusts: NA
Location:  41.0521°N, 80.3373°W
Report Text: KUCP 272056Z AUTO 33010KT 2 1/2SM -SN FEW001 BKN020 OVC026 M07/M10 A3003 RMK AO2 53017 60000 T10721100 P0000 SLP201
Loading
Personal Weather Stations






























Interactive Weather Map New forecast layout! Learn more

10-Day Weather Forecast

Advertisements
Track Severe Weather on mobile